Foley, AL (36535)

9:11 AM CST on November 24, 2014 (GMT -0600)
Myrtle Court | Change Station
CLOSE
Current Station
Personal Weather Station
Location: Foley, AL
Elevation: 65 ft
Nearby Weather Stations
Active Advisory: Coastal Hazard Statement

Elev 65 ft 30.40 °N, 87.67 °W | Updated 11 seconds ago

Overcast
Overcast
68.2 °F
Feels Like 68.2 °F
N
1.0
Wind Variable Wind from East
Gusts 5.0 mph

Today
High -- | Low -- °F
--% Chance of Precip.
Yesterday
High -- | Low -- °F
Precip. -- in
6:24 AM 4:50 PM
Waxing Crescent, 5% visible
Pressure 29.85 in
Visibility 5.0 miles
Clouds Overcast 200 ft
Dew Point 67 °F
Humidity 97%
Rainfall 0.00 in
Snow Depth Not available.
UV 1 out of 12
Pollen 3.40 out of 12
Air Quality Not available.
Flu Activity Not available.
METAR KJKA 241455Z AUTO 27005KT 5SM BR OVC002 19/19 A2985 RMK AO2 60001 T01910190

More Conditions Fewer Conditions

Pressure 29.85 in
Visibility 5.0 miles
Clouds Overcast 200 ft
Dew Point 67 °F
Humidity 97%
Rainfall 0.00 in
Snow Depth Not available.
UV 1 out of 12
Pollen 3.40 out of 12
Air Quality Not available.
Flu Activity Not available.
METAR KJKA 241455Z AUTO 27005KT 5SM BR OVC002 19/19 A2985 RMK AO2 60001 T01910190

More Conditions Fewer Conditions

10-Day Weather Forecast

Almanac

Astronomy

Nov. 24, 2014 Rise Set
Actual Time
Civil Twilight
Nautical Twilight
Astronomical Twilight
Moon
Length of Visible Light
Length of Day
Tomorrow will be .
, % of the Moon is Illuminated

Today's Extremes

State Highs State Lows

Community

WunderPhotos

Upload Photos

1,773,360 photos uploaded!

WunderBlogs® & News

Nearby

Air Quality

  Air Quality AQ Index Pollutant
Not available.

Snow Depth

Station Depth Elevation

Earthquake Activity

City Distance Mag. Time & Date
Minimum magnitude displayed is 2.5.

Coastal Water Temperatures

Place Temperature

Nearby Weather Stations